createdAt,value
2019-03-17T00:01:26.952Z,86.71
2019-03-17T00:03:54.979Z,86.56
2019-03-17T00:06:23.080Z,86.91
2019-03-17T00:08:51.006Z,86.58
2019-03-17T00:11:19.194Z,86.77
2019-03-17T00:13:47.250Z,87.31
2019-03-17T00:16:15.281Z,86.54
2019-03-17T00:18:43.370Z,86.66
2019-03-17T00:21:11.163Z,86.51
2019-03-17T00:23:38.898Z,86.64
2019-03-17T00:26:06.757Z,87.38
2019-03-17T00:28:34.466Z,86.37
2019-03-17T00:31:02.147Z,86.69
2019-03-17T00:33:29.926Z,86.70
2019-03-17T00:35:57.906Z,87.00
2019-03-17T00:38:25.644Z,87.47
2019-03-17T00:40:53.310Z,87.46
2019-03-17T00:43:20.967Z,87.59
2019-03-17T00:45:49.798Z,88.09
2019-03-17T00:48:17.491Z,87.88
2019-03-17T00:50:45.369Z,88.09
2019-03-17T00:53:13.153Z,88.28
2019-03-17T00:55:40.820Z,87.99
2019-03-17T00:58:08.521Z,88.78
2019-03-17T01:00:36.159Z,88.10
2019-03-17T01:03:03.959Z,87.95
2019-03-17T01:05:31.761Z,87.84
2019-03-17T01:07:59.640Z,88.11
2019-03-17T01:10:27.345Z,88.24
2019-03-17T01:12:55.098Z,87.95
2019-03-17T01:15:22.840Z,88.16
2019-03-17T01:17:50.676Z,88.23
2019-03-17T01:20:18.380Z,88.21
2019-03-17T01:22:46.016Z,88.47
2019-03-17T01:25:13.617Z,88.90
2019-03-17T01:27:41.193Z,88.78
2019-03-17T01:30:08.932Z,88.26
2019-03-17T01:32:36.558Z,88.95
2019-03-17T01:35:09.621Z,89.30
2019-03-17T01:37:34.663Z,88.96
2019-03-17T01:40:02.382Z,88.84
2019-03-17T01:42:29.951Z,88.71
2019-03-17T01:44:57.638Z,89.46
2019-03-17T01:47:27.707Z,90.24
2019-03-17T01:49:54.896Z,90.21
2019-03-17T01:52:22.512Z,90.27
2019-03-17T01:54:50.115Z,90.36
2019-03-17T01:57:17.738Z,92.28
2019-03-17T01:59:45.410Z,92.31
2019-03-17T02:02:13.063Z,90.72
2019-03-17T02:04:40.761Z,89.84
2019-03-17T02:07:08.417Z,89.47
2019-03-17T02:09:36.128Z,89.48
2019-03-17T02:12:03.772Z,93.30
2019-03-17T02:14:31.569Z,92.47
2019-03-17T02:16:59.187Z,91.63
2019-03-17T02:19:26.841Z,91.60
2019-03-17T02:21:54.554Z,90.99
2019-03-17T02:24:22.234Z,90.35
2019-03-17T02:26:49.858Z,90.61
2019-03-17T02:29:17.562Z,90.17
2019-03-17T02:31:45.145Z,90.10
2019-03-17T02:34:12.966Z,90.63
2019-03-17T02:36:40.618Z,91.45
2019-03-17T02:39:08.313Z,90.79
2019-03-17T02:41:35.949Z,90.40
2019-03-17T02:44:03.649Z,89.82
2019-03-17T02:46:31.271Z,90.29
2019-03-17T02:48:59.015Z,89.88
2019-03-17T02:51:26.593Z,89.36
2019-03-17T02:53:54.278Z,89.38
2019-03-17T02:56:21.886Z,89.29
2019-03-17T02:58:49.578Z,89.26
2019-03-17T03:01:17.267Z,89.50
2019-03-17T03:03:45.031Z,89.55
2019-03-17T03:06:13.055Z,89.70
2019-03-17T03:08:42.307Z,90.40
2019-03-17T03:11:10.190Z,89.34
2019-03-17T03:13:38.304Z,89.32
2019-03-17T03:16:06.419Z,89.59
2019-03-17T03:18:34.674Z,89.48
2019-03-17T03:21:02.273Z,89.64
2019-03-17T03:23:30.297Z,92.35
2019-03-17T03:25:58.281Z,91.15
2019-03-17T03:28:28.162Z,89.66
2019-03-17T03:30:56.214Z,90.19
2019-03-17T03:33:24.065Z,89.14
2019-03-17T03:35:52.239Z,89.14
2019-03-17T03:38:20.263Z,89.43
2019-03-17T03:40:48.121Z,88.61
2019-03-17T03:43:16.212Z,88.70
2019-03-17T03:45:44.261Z,89.25
2019-03-17T03:48:12.359Z,89.36
2019-03-17T03:50:40.215Z,89.30
2019-03-17T03:53:08.168Z,89.78
2019-03-17T03:55:36.216Z,91.83
2019-03-17T03:58:04.218Z,90.63
2019-03-17T04:00:32.283Z,89.85
2019-03-17T04:03:00.357Z,89.71
2019-03-17T04:05:32.408Z,90.79
2019-03-17T04:07:58.498Z,91.33
2019-03-17T04:10:26.472Z,90.24
2019-03-17T04:12:54.615Z,90.04
2019-03-17T04:15:22.614Z,90.18
2019-03-17T04:17:50.849Z,90.41
2019-03-17T04:20:18.707Z,90.21
2019-03-17T04:22:46.606Z,90.37
2019-03-17T04:25:16.472Z,89.99
2019-03-17T04:27:44.376Z,90.53
2019-03-17T04:30:12.529Z,90.75
2019-03-17T04:32:40.525Z,90.82
2019-03-17T04:35:08.679Z,90.45
2019-03-17T04:37:36.644Z,90.48
2019-03-17T04:40:04.499Z,90.45
2019-03-17T04:42:32.202Z,90.78
2019-03-17T04:44:59.895Z,90.08
2019-03-17T04:47:27.608Z,90.20
2019-03-17T04:49:55.346Z,90.44
2019-03-17T04:52:23.039Z,90.64
2019-03-17T04:54:50.771Z,90.96
2019-03-17T04:57:18.498Z,92.97
2019-03-17T04:59:46.216Z,94.30
2019-03-17T05:02:14.926Z,96.01
2019-03-17T05:04:42.607Z,96.08
2019-03-17T05:07:10.383Z,96.69
2019-03-17T05:09:38.084Z,96.98
2019-03-17T05:12:06.011Z,97.03
2019-03-17T05:14:33.751Z,97.12
2019-03-17T05:17:01.427Z,97.09
2019-03-17T05:19:29.130Z,96.96
2019-03-17T05:21:57.870Z,96.15
2019-03-17T05:24:25.622Z,94.29
2019-03-17T05:26:53.222Z,93.53
2019-03-17T05:29:20.927Z,93.22
2019-03-17T05:31:48.540Z,93.85
2019-03-17T05:34:16.313Z,93.77
2019-03-17T05:36:44.873Z,93.09
2019-03-17T05:39:12.562Z,93.36
2019-03-17T05:41:40.288Z,92.46
2019-03-17T05:44:07.987Z,91.73
2019-03-17T05:46:35.575Z,92.19
2019-03-17T05:49:03.477Z,91.55
2019-03-17T05:51:32.526Z,91.57
2019-03-17T05:54:00.155Z,92.30
2019-03-17T05:56:27.816Z,91.36
2019-03-17T05:58:57.161Z,90.85
2019-03-17T06:01:24.722Z,90.53
2019-03-17T06:03:52.420Z,90.55
2019-03-17T06:06:19.975Z,91.00
2019-03-17T06:08:47.674Z,92.01
2019-03-17T06:11:15.316Z,91.57
2019-03-17T06:13:43.369Z,91.70
2019-03-17T06:16:11.364Z,92.07
2019-03-17T06:18:39.262Z,91.62
2019-03-17T06:21:06.862Z,91.93
2019-03-17T06:23:34.743Z,92.38
2019-03-17T06:26:02.340Z,92.44
2019-03-17T06:28:30.010Z,92.14
2019-03-17T06:30:57.613Z,92.01
2019-03-17T06:33:25.293Z,91.98
2019-03-17T06:35:52.894Z,91.82
2019-03-17T06:38:20.566Z,91.71
2019-03-17T06:40:48.264Z,91.81
2019-03-17T06:43:15.978Z,91.82
2019-03-17T06:45:43.550Z,91.55
2019-03-17T06:48:11.162Z,91.44
2019-03-17T06:50:38.728Z,91.48
2019-03-17T06:53:06.474Z,91.66
2019-03-17T06:55:34.071Z,91.87
2019-03-17T06:58:01.676Z,90.93
2019-03-17T07:00:29.478Z,90.59
2019-03-17T07:02:57.254Z,90.53
2019-03-17T07:05:24.952Z,90.14
2019-03-17T07:07:52.691Z,90.22
2019-03-17T07:10:22.061Z,89.52
2019-03-17T07:12:49.854Z,89.62
2019-03-17T07:15:17.523Z,89.34
2019-03-17T07:17:45.157Z,89.78
2019-03-17T07:20:12.789Z,89.66
2019-03-17T07:22:40.403Z,89.78
2019-03-17T07:25:08.485Z,90.15
2019-03-17T07:27:36.161Z,89.85
2019-03-17T07:30:05.791Z,88.39
2019-03-17T07:32:33.561Z,87.56
2019-03-17T07:35:01.242Z,86.98
2019-03-17T07:37:28.951Z,86.20
2019-03-17T07:39:56.794Z,85.39
2019-03-17T07:42:24.631Z,85.11
2019-03-17T07:44:52.388Z,84.68
2019-03-17T07:47:20.033Z,84.53
2019-03-17T07:49:47.707Z,83.09
2019-03-17T07:52:15.379Z,82.62
2019-03-17T07:54:43.090Z,81.51
2019-03-17T07:57:12.457Z,81.56
2019-03-17T07:59:40.145Z,82.00
2019-03-17T08:02:07.806Z,79.74
2019-03-17T08:04:42.318Z,78.10
2019-03-17T08:07:05.046Z,77.89
2019-03-17T08:09:33.125Z,75.87
2019-03-17T08:12:00.701Z,75.48
2019-03-17T08:14:28.391Z,75.68
2019-03-17T08:16:56.602Z,75.42
2019-03-17T08:19:24.647Z,75.35
2019-03-17T08:21:52.272Z,75.16
2019-03-17T08:24:19.974Z,73.94
2019-03-17T08:26:50.036Z,73.71
2019-03-17T08:29:19.158Z,73.64
2019-03-17T08:31:47.165Z,73.43
2019-03-17T08:34:15.255Z,73.00
2019-03-17T08:36:43.069Z,73.56
2019-03-17T08:39:11.031Z,73.35
2019-03-17T08:41:39.207Z,74.10
2019-03-17T08:44:08.937Z,72.51
2019-03-17T08:46:36.964Z,72.70
2019-03-17T08:49:05.117Z,73.07
2019-03-17T08:51:33.613Z,72.13
2019-03-17T08:54:01.823Z,69.73
2019-03-17T08:56:29.564Z,68.49
2019-03-17T08:58:57.343Z,67.84
2019-03-17T09:01:25.362Z,66.72
2019-03-17T09:03:53.439Z,64.91
2019-03-17T09:06:21.087Z,65.47
2019-03-17T09:08:48.859Z,63.64
2019-03-17T09:11:16.476Z,62.20
2019-03-17T09:13:44.117Z,61.70
2019-03-17T09:16:11.678Z,59.55
2019-03-17T09:18:39.396Z,56.48
2019-03-17T09:21:06.972Z,55.48
2019-03-17T09:23:34.685Z,54.20
2019-03-17T09:26:03.267Z,53.38
2019-03-17T09:28:30.994Z,51.70
2019-03-17T09:30:58.648Z,51.26
2019-03-17T09:33:26.846Z,50.00
2019-03-17T09:35:54.790Z,50.05
2019-03-17T09:38:22.858Z,50.30
2019-03-17T09:40:50.713Z,50.27
2019-03-17T09:43:18.502Z,50.94
2019-03-17T09:45:46.153Z,50.91
2019-03-17T09:48:13.835Z,47.75
2019-03-17T09:50:41.496Z,48.09
2019-03-17T09:53:09.073Z,47.62
2019-03-17T09:55:36.800Z,45.60
2019-03-17T09:58:04.481Z,46.70
2019-03-17T10:00:32.076Z,46.93
2019-03-17T10:02:59.687Z,46.68
2019-03-17T10:05:27.365Z,47.04
2019-03-17T10:07:55.063Z,47.06
2019-03-17T10:10:22.887Z,46.65
2019-03-17T10:12:50.545Z,45.89
2019-03-17T10:15:22.965Z,46.16
2019-03-17T10:17:52.473Z,47.08
2019-03-17T10:20:20.282Z,46.35
2019-03-17T10:22:47.939Z,45.69
2019-03-17T10:25:16.820Z,46.44
2019-03-17T10:27:45.587Z,46.28
2019-03-17T10:30:13.631Z,45.01
2019-03-17T10:32:41.177Z,44.22
2019-03-17T10:35:08.883Z,43.62
2019-03-17T10:37:36.561Z,46.67
2019-03-17T10:40:07.318Z,44.54
2019-03-17T10:42:35.069Z,43.55
2019-03-17T10:45:02.709Z,43.42
2019-03-17T10:47:34.298Z,44.18
2019-03-17T10:50:07.821Z,43.70
2019-03-17T10:52:38.005Z,44.38
2019-03-17T10:55:07.659Z,43.44
2019-03-17T10:57:35.364Z,43.68
2019-03-17T11:00:08.780Z,42.94
2019-03-17T11:02:37.673Z,42.45
2019-03-17T11:05:07.482Z,42.81
2019-03-17T11:07:37.935Z,43.30
2019-03-17T11:10:06.731Z,42.42
2019-03-17T11:12:34.383Z,41.81
2019-03-17T11:15:03.716Z,41.82
2019-03-17T11:17:33.646Z,41.91
2019-03-17T11:20:01.737Z,41.91
2019-03-17T11:22:29.530Z,41.53
2019-03-17T11:24:59.797Z,40.82
2019-03-17T11:27:30.091Z,42.00
2019-03-17T11:29:57.919Z,40.58
2019-03-17T11:32:25.509Z,40.67
2019-03-17T11:34:53.136Z,39.77
2019-03-17T11:37:23.454Z,39.77
2019-03-17T11:39:50.348Z,40.15
2019-03-17T11:42:18.077Z,39.07
2019-03-17T11:44:45.810Z,37.75
2019-03-17T11:47:13.397Z,37.68
2019-03-17T11:49:41.145Z,36.66
2019-03-17T11:52:08.871Z,36.54
2019-03-17T11:54:36.449Z,38.36
2019-03-17T11:57:04.097Z,38.33
2019-03-17T11:59:31.748Z,37.82
2019-03-17T12:01:59.387Z,38.04
2019-03-17T12:04:27.076Z,38.05
2019-03-17T12:06:54.718Z,37.18
2019-03-17T12:09:29.034Z,37.40
2019-03-17T12:11:51.860Z,37.82
2019-03-17T12:14:19.510Z,36.87
2019-03-17T12:16:47.196Z,37.97
2019-03-17T12:19:14.804Z,37.80
2019-03-17T12:21:42.435Z,37.55
2019-03-17T12:24:11.057Z,37.05
2019-03-17T12:26:38.723Z,37.83
2019-03-17T12:29:07.186Z,36.89
2019-03-17T12:31:34.820Z,37.26
2019-03-17T12:34:02.679Z,37.12
2019-03-17T12:36:30.448Z,36.52
2019-03-17T12:38:58.170Z,35.85
2019-03-17T12:41:25.920Z,37.79
2019-03-17T12:43:53.621Z,36.90
2019-03-17T12:46:21.196Z,36.11
2019-03-17T12:48:50.031Z,36.94
2019-03-17T12:51:17.667Z,37.11
2019-03-17T12:53:45.349Z,36.61
2019-03-17T12:56:12.883Z,36.48
2019-03-17T12:58:43.665Z,36.96
2019-03-17T13:01:11.307Z,37.66
2019-03-17T13:03:39.001Z,37.24
2019-03-17T13:06:07.641Z,37.00
2019-03-17T13:08:35.300Z,36.93
2019-03-17T13:11:02.938Z,35.68
2019-03-17T13:13:32.107Z,36.29
2019-03-17T13:15:59.682Z,35.75
2019-03-17T13:18:31.131Z,35.08
2019-03-17T13:20:59.865Z,34.53
2019-03-17T13:23:27.515Z,36.03
2019-03-17T13:25:55.085Z,37.23
2019-03-17T13:28:22.681Z,37.95
2019-03-17T13:30:50.305Z,37.48
2019-03-17T13:33:17.946Z,38.39
2019-03-17T13:35:45.789Z,39.33
2019-03-17T13:38:13.350Z,40.02
2019-03-17T13:40:40.991Z,40.09
2019-03-17T13:43:08.587Z,40.35
2019-03-17T13:45:36.263Z,41.14
2019-03-17T13:48:03.970Z,41.09
2019-03-17T13:50:31.674Z,41.40
2019-03-17T13:52:59.342Z,42.05
2019-03-17T13:55:26.925Z,43.35
2019-03-17T13:57:55.788Z,43.23
2019-03-17T14:00:23.493Z,43.97
2019-03-17T14:02:51.181Z,44.10
2019-03-17T14:05:18.853Z,43.73
2019-03-17T14:07:46.436Z,44.53
2019-03-17T14:10:14.942Z,44.43
2019-03-17T14:12:42.650Z,43.80
2019-03-17T14:15:11.717Z,43.67
2019-03-17T14:17:39.403Z,44.54
2019-03-17T14:20:08.945Z,44.90
2019-03-17T14:22:36.637Z,44.59
2019-03-17T14:25:06.422Z,44.82
2019-03-17T14:27:34.114Z,45.07
2019-03-17T14:30:01.673Z,44.95
2019-03-17T14:32:29.292Z,44.02
2019-03-17T14:34:56.911Z,43.70
2019-03-17T14:37:24.608Z,44.40
2019-03-17T14:39:52.343Z,44.28
2019-03-17T14:42:20.025Z,44.68
2019-03-17T14:44:47.730Z,45.43
2019-03-17T14:47:15.399Z,45.67
2019-03-17T14:49:43.023Z,45.83
2019-03-17T14:52:10.703Z,46.30
2019-03-17T14:54:38.292Z,46.21
2019-03-17T14:57:06.147Z,46.29
2019-03-17T14:59:33.761Z,46.51
2019-03-17T15:02:01.357Z,47.03
2019-03-17T15:04:29.296Z,47.92
2019-03-17T15:06:56.854Z,48.29
2019-03-17T15:09:24.447Z,48.84
2019-03-17T15:11:52.054Z,48.87
2019-03-17T15:14:20.013Z,48.83
2019-03-17T15:16:47.797Z,47.94
2019-03-17T15:19:15.779Z,47.75
2019-03-17T15:21:43.632Z,47.90
2019-03-17T15:24:11.279Z,47.79
2019-03-17T15:26:39.287Z,48.26
2019-03-17T15:29:07.242Z,48.08
2019-03-17T15:31:35.101Z,48.70
2019-03-17T15:34:02.983Z,48.71
2019-03-17T15:36:30.836Z,48.62
2019-03-17T15:38:58.881Z,48.17
2019-03-17T15:41:26.813Z,48.29
2019-03-17T15:43:55.023Z,48.59
2019-03-17T15:46:22.884Z,48.32
2019-03-17T15:48:51.045Z,48.56
2019-03-17T15:51:20.849Z,48.82
2019-03-17T15:53:49.253Z,48.91
2019-03-17T15:56:17.273Z,49.02
2019-03-17T15:58:45.509Z,49.23
2019-03-17T16:01:13.534Z,49.40
2019-03-17T16:03:41.539Z,49.49
2019-03-17T16:06:09.571Z,49.85
2019-03-17T16:08:37.458Z,49.20
2019-03-17T16:11:05.855Z,48.93
2019-03-17T16:13:34.055Z,48.35
2019-03-17T16:16:01.927Z,48.14
2019-03-17T16:18:29.798Z,48.07
2019-03-17T16:20:57.712Z,47.98
2019-03-17T16:23:25.704Z,47.92
2019-03-17T16:25:53.730Z,47.11
2019-03-17T16:28:21.798Z,46.66
2019-03-17T16:30:49.688Z,46.67
2019-03-17T16:33:17.791Z,47.15
2019-03-17T16:35:46.448Z,46.95
2019-03-17T16:38:14.721Z,47.39
2019-03-17T16:40:43.872Z,47.23
2019-03-17T16:43:21.152Z,47.86
2019-03-17T16:45:49.130Z,48.06
2019-03-17T16:48:18.601Z,48.09
2019-03-17T16:50:46.820Z,48.20
2019-03-17T16:53:15.069Z,48.29
2019-03-17T16:55:45.035Z,48.39
2019-03-17T16:58:12.989Z,48.68
2019-03-17T17:00:41.220Z,50.19
2019-03-17T17:03:09.305Z,49.41
2019-03-17T17:05:37.222Z,50.05
2019-03-17T17:08:05.118Z,49.12
2019-03-17T17:10:33.056Z,49.69
2019-03-17T17:13:01.214Z,49.77
2019-03-17T17:15:29.334Z,50.13
2019-03-17T17:17:58.214Z,49.76
2019-03-17T17:20:27.910Z,50.12
2019-03-17T17:22:57.000Z,50.33
2019-03-17T17:25:24.988Z,50.31
2019-03-17T17:27:52.980Z,50.89
2019-03-17T17:30:22.062Z,51.18
2019-03-17T17:32:50.125Z,51.39
2019-03-17T17:35:18.658Z,51.55
2019-03-17T17:37:46.620Z,51.67
2019-03-17T17:40:15.281Z,51.79
2019-03-17T17:42:43.260Z,52.12
2019-03-17T17:45:12.503Z,52.35
2019-03-17T17:47:40.294Z,52.31
2019-03-17T17:50:09.402Z,52.28
2019-03-17T17:52:37.405Z,52.32
2019-03-17T17:55:07.274Z,52.31
2019-03-17T17:57:35.184Z,51.84
2019-03-17T18:00:04.240Z,51.95
2019-03-17T18:02:32.539Z,52.12
2019-03-17T18:05:00.626Z,52.60
2019-03-17T18:07:28.474Z,52.79
2019-03-17T18:09:56.515Z,52.59
2019-03-17T18:12:24.528Z,52.70
2019-03-17T18:14:52.478Z,53.13
2019-03-17T18:17:20.245Z,53.16
2019-03-17T18:19:48.224Z,53.43
2019-03-17T18:22:16.140Z,53.51
2019-03-17T18:24:44.052Z,53.35
2019-03-17T18:27:14.937Z,53.61
2019-03-17T18:29:42.964Z,53.25
2019-03-17T18:32:11.120Z,53.56
2019-03-17T18:34:39.123Z,53.64
2019-03-17T18:44:19.752Z,54.70
2019-03-17T18:46:47.873Z,53.06
2019-03-17T18:49:15.929Z,51.83
2019-03-17T19:05:20.182Z,44.86
2019-03-17T19:07:47.991Z,44.46
2019-03-17T19:10:16.718Z,45.13
2019-03-17T19:43:34.616Z,43.02
2019-03-17T19:46:02.387Z,43.67
2019-03-17T19:52:01.411Z,43.70
2019-03-17T19:54:29.122Z,42.27
2019-03-17T19:56:56.792Z,42.81
